createdAt,value
2022-11-17T00:00:42.076Z,13.20
2022-11-17T00:03:13.523Z,15.60
2022-11-17T00:05:40.312Z,19.05
2022-11-17T00:08:07.011Z,14.95
2022-11-17T00:10:33.792Z,14.88
2022-11-17T00:13:18.972Z,16.35
2022-11-17T00:15:45.864Z,15.05
2022-11-17T00:18:31.064Z,14.45
2022-11-17T00:23:49.906Z,17.23
2022-11-17T00:26:19.096Z,14.07
2022-11-17T00:28:46.083Z,14.15
2022-11-17T00:31:34.157Z,18.92
2022-11-17T00:34:06.855Z,18.15
2022-11-17T00:36:45.408Z,17.77
2022-11-17T00:39:13.637Z,16.20
2022-11-17T00:41:40.544Z,14.95
2022-11-17T00:44:08.036Z,16.40
2022-11-17T00:46:37.049Z,21.02
2022-11-17T00:49:08.028Z,21.17
2022-11-17T00:51:35.900Z,20.42
2022-11-17T00:54:03.604Z,16.25
2022-11-17T00:56:30.708Z,14.95
2022-11-17T00:58:57.557Z,13.43
2022-11-17T01:01:24.805Z,14.95
2022-11-17T01:04:02.705Z,19.50
2022-11-17T01:06:33.149Z,16.30
2022-11-17T01:09:05.730Z,18.50
2022-11-17T01:11:33.371Z,16.55
2022-11-17T01:14:01.041Z,18.33
2022-11-17T01:16:29.109Z,15.68
2022-11-17T01:18:58.478Z,13.73
2022-11-17T01:21:27.024Z,14.27
2022-11-17T01:23:55.430Z,14.93
2022-11-17T01:26:25.532Z,14.82
2022-11-17T01:28:52.611Z,15.57
2022-11-17T01:31:22.286Z,13.43
2022-11-17T01:33:49.644Z,14.02
2022-11-17T01:36:19.040Z,16.38
2022-11-17T01:38:46.222Z,14.60
2022-11-17T01:41:19.426Z,15.00
2022-11-17T01:43:51.866Z,15.57
2022-11-17T01:46:21.741Z,13.10
2022-11-17T01:48:50.083Z,14.48
2022-11-17T01:51:17.597Z,17.55
2022-11-17T01:53:45.330Z,12.93
2022-11-17T01:56:18.624Z,12.45
2022-11-17T01:58:54.786Z,10.93
2022-11-17T02:01:21.954Z,11.52
2022-11-17T02:03:50.324Z,10.88
2022-11-17T02:06:23.300Z,12.95
2022-11-17T02:08:52.550Z,12.82
2022-11-17T02:11:20.637Z,14.32
2022-11-17T02:13:48.702Z,13.63
2022-11-17T02:16:16.941Z,12.98
2022-11-17T02:18:45.431Z,11.68
2022-11-17T02:21:33.780Z,13.32
2022-11-17T02:24:22.076Z,14.00
2022-11-17T02:26:48.821Z,16.73
2022-11-17T02:29:36.878Z,14.65
2022-11-17T02:32:06.794Z,14.85
2022-11-17T02:34:48.303Z,14.65
2022-11-17T02:37:27.797Z,13.60
2022-11-17T02:40:02.751Z,13.55
2022-11-17T02:43:00.677Z,15.70
2022-11-17T02:45:56.865Z,11.93
2022-11-17T02:48:49.616Z,14.40
2022-11-17T02:51:21.338Z,14.52
2022-11-17T02:53:54.205Z,14.27
2022-11-17T02:56:21.318Z,14.32
2022-11-17T02:58:51.763Z,15.23
2022-11-17T03:01:43.252Z,15.30
2022-11-17T03:04:36.003Z,17.02
2022-11-17T03:07:39.639Z,13.32
2022-11-17T03:10:19.496Z,12.30
2022-11-17T03:13:00.792Z,14.98
2022-11-17T03:15:54.258Z,15.35
2022-11-17T03:18:40.773Z,16.33
2022-11-17T03:21:15.476Z,15.48
2022-11-17T03:26:22.544Z,14.38
2022-11-17T03:28:49.419Z,14.13
2022-11-17T03:31:17.961Z,14.02
2022-11-17T03:33:48.029Z,15.23
2022-11-17T03:36:19.429Z,13.25
2022-11-17T03:38:54.877Z,13.63
2022-11-17T03:41:23.480Z,13.73
2022-11-17T03:43:52.921Z,13.48
2022-11-17T03:46:22.565Z,16.92
2022-11-17T03:49:14.630Z,16.30
2022-11-17T03:51:41.797Z,17.88
2022-11-17T03:54:10.621Z,15.95
2022-11-17T03:56:55.679Z,14.90
2022-11-17T04:01:52.409Z,19.42
2022-11-17T04:04:21.066Z,16.30
2022-11-17T04:06:51.227Z,15.35
2022-11-17T04:09:23.996Z,16.13
2022-11-17T04:12:09.773Z,15.10
2022-11-17T04:14:55.204Z,16.77
2022-11-17T04:17:22.186Z,17.08
2022-11-17T04:19:49.051Z,14.93
2022-11-17T04:22:15.856Z,16.40
2022-11-17T04:24:42.619Z,19.35
2022-11-17T04:27:28.092Z,14.75
2022-11-17T04:29:54.897Z,14.43
2022-11-17T04:32:21.668Z,12.82
2022-11-17T04:34:48.510Z,14.23
2022-11-17T04:37:18.290Z,14.57
2022-11-17T04:39:45.906Z,13.18
2022-11-17T04:42:12.727Z,14.63
2022-11-17T04:44:39.487Z,15.68
2022-11-17T04:47:06.977Z,17.80
2022-11-17T04:49:34.297Z,16.83
2022-11-17T04:52:01.268Z,16.30
2022-11-17T04:54:28.289Z,15.15
2022-11-17T04:56:55.861Z,20.08
2022-11-17T04:59:23.458Z,15.65
2022-11-17T05:01:51.144Z,15.25
2022-11-17T05:04:38.965Z,14.32
2022-11-17T05:07:07.266Z,16.33
2022-11-17T05:09:34.142Z,14.68
2022-11-17T05:12:19.530Z,14.38
2022-11-17T05:14:49.070Z,16.55
2022-11-17T05:17:16.712Z,16.23
2022-11-17T05:19:45.655Z,21.67
2022-11-17T05:22:41.924Z,20.73
2022-11-17T05:25:09.743Z,18.75
2022-11-17T05:27:36.748Z,17.05
2022-11-17T05:30:06.170Z,16.73
2022-11-17T05:32:32.950Z,14.18
2022-11-17T05:34:59.703Z,16.67
2022-11-17T05:37:26.580Z,15.48
2022-11-17T05:39:53.498Z,16.33
2022-11-17T05:42:20.637Z,14.82
2022-11-17T05:44:48.468Z,14.67
2022-11-17T05:47:15.698Z,19.02
2022-11-17T05:49:42.454Z,16.05
2022-11-17T05:52:09.491Z,16.52
2022-11-17T05:54:36.315Z,15.05
2022-11-17T05:57:12.948Z,12.85
2022-11-17T05:59:42.512Z,14.15
2022-11-17T06:02:23.756Z,13.10
2022-11-17T06:04:52.064Z,12.85
2022-11-17T06:07:20.085Z,13.40
2022-11-17T06:09:47.667Z,14.32
2022-11-17T06:12:15.367Z,13.07
2022-11-17T06:14:42.580Z,10.82
2022-11-17T06:17:22.464Z,14.10
2022-11-17T06:20:13.220Z,12.15
2022-11-17T06:22:42.915Z,11.95
2022-11-17T06:25:14.277Z,18.03
2022-11-17T06:27:41.763Z,15.20
2022-11-17T06:30:08.892Z,12.63
2022-11-17T06:32:37.951Z,11.65
2022-11-17T06:35:08.636Z,11.38
2022-11-17T06:37:35.624Z,15.10
2022-11-17T06:40:03.231Z,13.77
2022-11-17T06:42:48.541Z,15.70
2022-11-17T06:45:15.457Z,14.65
2022-11-17T06:47:42.193Z,18.35
2022-11-17T06:50:10.438Z,20.40
2022-11-17T06:52:41.512Z,21.00
2022-11-17T06:55:08.753Z,15.98
2022-11-17T06:57:35.632Z,17.73
2022-11-17T07:00:02.789Z,16.60
2022-11-17T07:02:31.767Z,15.63
2022-11-17T07:04:58.669Z,16.30
2022-11-17T07:07:25.590Z,20.48
2022-11-17T07:09:52.508Z,17.77
2022-11-17T07:12:19.401Z,14.95
2022-11-17T07:14:46.732Z,15.77
2022-11-17T07:17:13.631Z,13.80
2022-11-17T07:19:40.512Z,15.25
2022-11-17T07:22:07.522Z,15.55
2022-11-17T07:24:34.332Z,16.83
2022-11-17T07:27:01.251Z,14.35
2022-11-17T07:29:29.113Z,13.68
2022-11-17T07:31:56.005Z,13.93
2022-11-17T07:34:23.076Z,14.25
2022-11-17T07:36:49.889Z,12.98
2022-11-17T07:39:21.247Z,14.48
2022-11-17T07:41:48.406Z,13.60
2022-11-17T07:44:15.273Z,14.43
2022-11-17T07:46:42.196Z,13.27
2022-11-17T07:49:09.040Z,13.48
2022-11-17T07:51:35.860Z,12.75
2022-11-17T07:54:02.736Z,10.70
2022-11-17T07:56:29.571Z,8.13
2022-11-17T07:58:56.556Z,8.25
2022-11-17T08:01:23.585Z,10.35
2022-11-17T08:03:50.405Z,11.82
2022-11-17T08:06:17.396Z,12.45
2022-11-17T08:08:44.496Z,8.77
2022-11-17T08:11:12.821Z,8.63
2022-11-17T08:13:40.648Z,7.38
2022-11-17T08:16:09.650Z,8.02
2022-11-17T08:18:37.062Z,7.18
2022-11-17T08:21:10.125Z,8.02
2022-11-17T08:23:37.505Z,6.93
2022-11-17T08:26:05.836Z,8.25
2022-11-17T08:28:34.333Z,7.30
2022-11-17T08:31:05.176Z,8.75
2022-11-17T08:33:32.736Z,9.60
2022-11-17T08:36:01.545Z,9.05
2022-11-17T08:38:31.557Z,8.95
2022-11-17T08:41:09.987Z,10.38
2022-11-17T08:43:37.039Z,12.57
2022-11-17T08:46:04.190Z,10.73
2022-11-17T08:48:31.795Z,10.68
2022-11-17T08:51:04.062Z,8.70
2022-11-17T08:53:31.429Z,8.73
2022-11-17T08:55:58.366Z,10.20
2022-11-17T08:58:25.298Z,8.00
2022-11-17T09:00:52.202Z,9.75
2022-11-17T09:03:19.047Z,12.48
2022-11-17T09:05:49.129Z,7.63
2022-11-17T09:08:44.392Z,9.60
2022-11-17T09:11:11.034Z,10.30
2022-11-17T09:13:38.971Z,8.13
2022-11-17T09:16:08.468Z,6.72
2022-11-17T09:18:38.099Z,8.32
2022-11-17T09:21:12.522Z,6.38
2022-11-17T09:23:40.098Z,7.60
2022-11-17T09:26:12.777Z,8.63
2022-11-17T09:28:40.231Z,6.80
2022-11-17T09:31:09.038Z,8.35
2022-11-17T09:33:36.513Z,6.95
2022-11-17T09:36:04.157Z,8.70
2022-11-17T09:38:31.214Z,7.75
2022-11-17T09:40:59.606Z,6.60
2022-11-17T09:43:30.639Z,6.10
2022-11-17T09:46:13.146Z,6.13
2022-11-17T09:48:58.167Z,5.78
2022-11-17T09:54:04.214Z,7.63
2022-11-17T09:56:31.184Z,7.35
2022-11-17T09:59:12.035Z,7.00
2022-11-17T10:01:39.282Z,6.90
2022-11-17T10:04:12.558Z,6.95
2022-11-17T10:06:44.541Z,6.85
2022-11-17T10:09:36.173Z,7.07
2022-11-17T10:12:15.486Z,6.43
2022-11-17T10:14:42.475Z,7.40
2022-11-17T10:17:10.727Z,6.25
2022-11-17T10:19:38.478Z,7.40
2022-11-17T10:22:05.448Z,6.78
2022-11-17T10:24:39.352Z,7.15
2022-11-17T10:27:26.007Z,6.13
2022-11-17T10:30:01.506Z,7.13
2022-11-17T10:32:32.250Z,6.47
2022-11-17T10:35:18.172Z,8.15
2022-11-17T10:37:56.040Z,8.00
2022-11-17T10:40:26.440Z,7.30
2022-11-17T10:43:05.014Z,7.90
2022-11-17T10:45:32.484Z,8.73
2022-11-17T10:48:22.079Z,7.95
2022-11-17T10:50:57.136Z,8.57
2022-11-17T10:53:32.618Z,7.30
2022-11-17T10:56:22.105Z,8.55
2022-11-17T10:59:19.035Z,8.88
2022-11-17T11:01:49.837Z,7.25
2022-11-17T11:04:39.487Z,8.73
2022-11-17T11:07:14.875Z,8.38
2022-11-17T11:10:06.525Z,5.53
2022-11-17T11:12:41.398Z,7.03
2022-11-17T11:15:18.339Z,7.05
2022-11-17T11:17:45.211Z,9.30
2022-11-17T11:20:18.106Z,7.35
2022-11-17T11:23:03.706Z,6.40
2022-11-17T11:25:41.093Z,6.13
2022-11-17T11:28:39.997Z,7.50
2022-11-17T11:31:22.948Z,7.18
2022-11-17T11:34:17.306Z,6.75
2022-11-17T11:37:15.013Z,6.05
2022-11-17T11:39:44.849Z,5.38
2022-11-17T11:42:36.082Z,5.13
2022-11-17T11:45:34.994Z,6.07
2022-11-17T11:48:16.498Z,7.35
2022-11-17T11:51:09.690Z,5.70
2022-11-17T11:53:56.094Z,6.63
2022-11-17T11:56:38.265Z,5.13
2022-11-17T11:59:22.077Z,5.80
2022-11-17T12:02:14.647Z,5.53
2022-11-17T12:05:00.497Z,5.22
2022-11-17T12:07:45.221Z,8.02
2022-11-17T12:10:28.902Z,6.20
2022-11-17T12:12:56.200Z,6.45
2022-11-17T12:15:22.949Z,4.72
2022-11-17T12:18:14.307Z,6.07
2022-11-17T12:20:48.370Z,6.40
2022-11-17T12:23:52.705Z,6.80
2022-11-17T12:26:23.012Z,7.20
2022-11-17T12:28:49.878Z,6.47
2022-11-17T12:31:47.359Z,5.78
2022-11-17T12:34:24.840Z,6.00
2022-11-17T12:37:26.526Z,5.57
2022-11-17T12:39:56.217Z,5.13
2022-11-17T12:42:23.509Z,6.00
2022-11-17T12:45:07.595Z,6.03
2022-11-17T12:47:38.120Z,5.75
2022-11-17T12:50:33.818Z,6.55
2022-11-17T12:53:09.562Z,7.40
2022-11-17T12:55:39.114Z,5.32
2022-11-17T12:58:14.505Z,5.30
2022-11-17T13:01:09.340Z,5.18
2022-11-17T13:03:57.935Z,4.75
2022-11-17T13:06:40.269Z,5.93
2022-11-17T13:09:11.582Z,5.00
2022-11-17T13:11:38.661Z,4.32
2022-11-17T13:14:14.290Z,4.15
2022-11-17T13:16:49.516Z,3.80
2022-11-17T13:19:46.202Z,4.78
2022-11-17T13:22:16.021Z,5.60
2022-11-17T13:24:47.927Z,4.40
2022-11-17T13:27:29.800Z,3.85
2022-11-17T13:30:15.499Z,4.93
2022-11-17T13:32:42.916Z,5.65
2022-11-17T13:35:22.139Z,7.18
2022-11-17T13:38:18.382Z,5.82
2022-11-17T13:40:46.195Z,6.55
2022-11-17T13:43:20.367Z,4.68
2022-11-17T13:45:48.265Z,3.47
2022-11-17T13:48:32.356Z,6.00
2022-11-17T13:51:17.944Z,5.05
2022-11-17T13:53:47.677Z,4.38
2022-11-17T13:56:34.960Z,5.43
2022-11-17T13:59:06.290Z,6.03
2022-11-17T14:01:33.301Z,4.85
2022-11-17T14:04:22.815Z,3.95
2022-11-17T14:06:57.963Z,5.60
2022-11-17T14:09:29.416Z,3.50
2022-11-17T14:12:00.236Z,5.20
2022-11-17T14:14:39.980Z,3.15
2022-11-17T14:17:21.448Z,4.18
2022-11-17T14:19:48.653Z,3.35
2022-11-17T14:22:22.411Z,3.72
2022-11-17T14:24:52.028Z,3.60
2022-11-17T14:27:27.672Z,3.85
2022-11-17T14:29:55.212Z,3.20
2022-11-17T14:32:24.517Z,3.38
2022-11-17T14:34:51.441Z,3.22
2022-11-17T14:37:18.567Z,3.15
2022-11-17T14:39:45.364Z,2.83
2022-11-17T14:42:12.333Z,2.92
2022-11-17T14:44:39.153Z,4.05
2022-11-17T14:47:06.181Z,4.35
2022-11-17T14:49:33.043Z,3.72
2022-11-17T14:52:00.537Z,4.75
2022-11-17T14:54:29.033Z,2.92
2022-11-17T14:56:55.811Z,2.58
2022-11-17T14:59:22.626Z,3.47
2022-11-17T15:01:49.514Z,3.50
2022-11-17T15:04:48.365Z,5.30
2022-11-17T15:07:03.373Z,3.08
2022-11-17T15:09:30.447Z,2.92
2022-11-17T15:11:57.274Z,4.22
2022-11-17T15:14:24.209Z,3.65
2022-11-17T15:16:51.232Z,2.22
2022-11-17T15:19:18.118Z,3.55
2022-11-17T15:21:45.248Z,2.50
2022-11-17T15:24:12.409Z,1.73
2022-11-17T15:26:39.180Z,2.92
2022-11-17T15:29:06.034Z,2.88
2022-11-17T15:31:33.106Z,4.32
2022-11-17T15:34:01.435Z,2.28
2022-11-17T15:36:28.431Z,4.25
2022-11-17T15:38:56.616Z,3.67
2022-11-17T15:41:23.649Z,2.42
2022-11-17T15:43:51.878Z,2.78
2022-11-17T15:46:19.084Z,3.03
2022-11-17T15:48:49.077Z,3.55
2022-11-17T15:51:17.822Z,5.68
2022-11-17T15:53:46.819Z,1.70
2022-11-17T15:56:13.586Z,1.33
2022-11-17T15:58:42.186Z,1.13
2022-11-17T16:01:25.118Z,1.08
2022-11-17T16:03:53.039Z,1.55
2022-11-17T16:06:19.989Z,2.00
2022-11-17T16:08:46.799Z,1.90
2022-11-17T16:11:14.145Z,1.77
2022-11-17T16:13:41.194Z,2.80
2022-11-17T16:16:12.257Z,1.25
2022-11-17T16:18:39.376Z,1.40
2022-11-17T16:21:08.544Z,0.85
2022-11-17T16:23:41.941Z,1.65
2022-11-17T16:26:10.640Z,1.50
2022-11-17T16:28:38.578Z,2.45
2022-11-17T16:31:13.828Z,3.72
2022-11-17T16:33:40.736Z,3.08
2022-11-17T16:36:08.344Z,4.55
2022-11-17T16:38:35.446Z,4.55
2022-11-17T16:41:02.337Z,4.13
2022-11-17T16:43:29.598Z,4.55
2022-11-17T16:45:56.497Z,5.45
2022-11-17T16:48:23.629Z,6.53
2022-11-17T16:50:50.709Z,4.20
2022-11-17T16:53:17.700Z,4.43
2022-11-17T16:55:44.560Z,2.40
2022-11-17T16:58:11.636Z,2.50
2022-11-17T17:00:38.563Z,2.97
2022-11-17T17:03:05.586Z,1.75
2022-11-17T17:05:34.488Z,2.47
2022-11-17T17:08:01.257Z,3.03
2022-11-17T17:10:28.148Z,2.10
2022-11-17T17:12:55.001Z,2.15
2022-11-17T17:15:21.846Z,2.03
2022-11-17T17:17:48.816Z,3.47
2022-11-17T17:20:15.880Z,2.80
2022-11-17T17:22:42.816Z,2.45
2022-11-17T17:25:09.897Z,2.63
2022-11-17T17:27:36.675Z,2.92
2022-11-17T17:30:04.775Z,2.78
2022-11-17T17:32:31.668Z,2.03
2022-11-17T17:34:58.549Z,4.13
2022-11-17T17:37:25.487Z,3.38
2022-11-17T17:39:52.308Z,3.40
2022-11-17T17:42:20.424Z,4.70
2022-11-17T17:44:47.254Z,4.50
2022-11-17T17:47:14.083Z,2.53
2022-11-17T17:49:40.892Z,3.38
2022-11-17T17:52:13.555Z,3.83
2022-11-17T17:54:40.826Z,3.72
2022-11-17T17:57:07.856Z,4.22
2022-11-17T17:59:34.738Z,3.05
2022-11-17T18:02:01.569Z,2.58
2022-11-17T18:04:29.451Z,2.17
2022-11-17T18:06:57.687Z,2.75
2022-11-17T18:09:24.559Z,1.38
2022-11-17T18:11:51.590Z,2.17
2022-11-17T18:14:23.761Z,3.03
2022-11-17T18:16:51.723Z,1.30
2022-11-17T18:19:19.344Z,1.77
2022-11-17T18:21:46.634Z,1.65
2022-11-17T18:24:13.947Z,1.50
2022-11-17T18:26:41.307Z,1.92
2022-11-17T18:29:13.703Z,2.17
2022-11-17T18:31:41.715Z,1.42
2022-11-17T18:34:13.693Z,1.75
2022-11-17T18:36:40.804Z,2.00
2022-11-17T18:39:07.890Z,2.13
2022-11-17T18:41:36.222Z,1.88
2022-11-17T18:44:03.798Z,2.33
2022-11-17T18:46:32.982Z,1.27
2022-11-17T18:49:00.752Z,1.65
2022-11-17T18:51:29.879Z,1.55
2022-11-17T18:53:59.291Z,1.50
2022-11-17T18:56:28.597Z,2.90
2022-11-17T18:58:55.554Z,1.40
2022-11-17T19:01:24.878Z,1.58
2022-11-17T19:03:54.362Z,2.75
2022-11-17T19:06:23.543Z,1.83
2022-11-17T19:08:51.410Z,2.03
2022-11-17T19:11:20.550Z,2.33
2022-11-17T19:13:47.771Z,2.10
2022-11-17T19:16:19.563Z,1.90
2022-11-17T19:18:48.001Z,2.45
2022-11-17T19:21:17.458Z,1.98
2022-11-17T19:23:51.462Z,2.20
2022-11-17T19:26:22.474Z,2.58
2022-11-17T19:28:50.638Z,4.10
2022-11-17T19:31:20.060Z,4.82
2022-11-17T19:33:48.854Z,2.65
2022-11-17T19:36:19.105Z,2.72
2022-11-17T19:38:49.017Z,2.65
2022-11-17T19:41:36.485Z,4.38
2022-11-17T19:44:06.029Z,2.22
2022-11-17T19:46:33.739Z,2.78
2022-11-17T19:49:00.735Z,3.00
2022-11-17T19:51:32.685Z,2.95
2022-11-17T19:54:04.952Z,2.65
2022-11-17T19:56:32.258Z,2.83
2022-11-17T19:58:59.216Z,2.90
2022-11-17T20:01:28.990Z,2.55
2022-11-17T20:03:57.338Z,1.98
2022-11-17T20:06:29.417Z,2.05
2022-11-17T20:08:57.650Z,1.70
2022-11-17T20:11:26.933Z,1.85
2022-11-17T20:13:54.899Z,1.65
2022-11-17T20:16:25.958Z,1.35
2022-11-17T20:18:55.465Z,1.10
2022-11-17T20:21:23.120Z,3.35
2022-11-17T20:23:50.010Z,2.13
2022-11-17T20:26:22.838Z,0.80
2022-11-17T20:28:50.725Z,1.08
2022-11-17T20:31:24.274Z,1.70
2022-11-17T20:33:53.567Z,1.10
2022-11-17T20:36:22.243Z,1.65
2022-11-17T20:38:53.920Z,1.20
2022-11-17T20:41:23.207Z,1.65
2022-11-17T20:43:52.338Z,2.08
2022-11-17T20:46:19.963Z,2.00
2022-11-17T20:48:47.287Z,2.10
2022-11-17T20:51:16.907Z,1.52
2022-11-17T20:53:44.214Z,1.85
2022-11-17T20:56:12.613Z,2.45
2022-11-17T20:58:40.148Z,2.70
2022-11-17T21:01:12.648Z,2.40
2022-11-17T21:03:39.585Z,2.58
2022-11-17T21:06:06.725Z,2.03
2022-11-17T21:08:36.670Z,3.05
2022-11-17T21:11:09.342Z,2.28
2022-11-17T21:13:37.309Z,2.30
2022-11-17T21:16:14.907Z,1.60
2022-11-17T21:18:47.133Z,2.38
2022-11-17T21:21:14.998Z,1.88
2022-11-17T21:23:43.929Z,2.03
2022-11-17T21:26:13.691Z,1.75
2022-11-17T21:28:41.172Z,2.38
2022-11-17T21:31:14.666Z,1.38
2022-11-17T21:33:42.711Z,1.60
2022-11-17T21:36:15.510Z,1.58
2022-11-17T21:38:43.525Z,2.13
2022-11-17T21:41:18.889Z,1.75
2022-11-17T21:43:47.912Z,2.72
2022-11-17T21:46:17.481Z,2.05
2022-11-17T21:48:45.161Z,1.83
2022-11-17T21:51:23.789Z,2.22
2022-11-17T21:53:55.915Z,2.15
2022-11-17T21:56:26.425Z,2.75
2022-11-17T21:58:57.918Z,2.08
2022-11-17T22:01:25.322Z,1.83
2022-11-17T22:03:53.518Z,2.00
2022-11-17T22:06:22.842Z,2.08
2022-11-17T22:08:52.940Z,2.50
2022-11-17T22:11:36.045Z,1.77
2022-11-17T22:14:22.076Z,1.70
2022-11-17T22:16:58.672Z,2.72
2022-11-17T22:19:29.361Z,1.50
2022-11-17T22:21:56.312Z,2.28
2022-11-17T22:24:38.706Z,1.73
2022-11-17T22:27:13.074Z,2.08
2022-11-17T22:29:49.988Z,1.40
2022-11-17T22:32:18.013Z,1.30
2022-11-17T22:34:44.750Z,1.40
2022-11-17T22:37:11.916Z,1.63
2022-11-17T22:39:38.719Z,1.40
2022-11-17T22:42:05.598Z,2.03
2022-11-17T22:44:32.385Z,1.40
2022-11-17T22:46:59.127Z,1.48
2022-11-17T22:49:25.897Z,1.50
2022-11-17T22:52:07.002Z,1.75
2022-11-17T22:54:34.899Z,2.30
2022-11-17T22:57:02.296Z,1.42
2022-11-17T22:59:30.521Z,1.40
2022-11-17T23:01:57.298Z,1.83
2022-11-17T23:04:24.126Z,2.67
2022-11-17T23:06:51.326Z,2.47
2022-11-17T23:09:18.445Z,1.88
2022-11-17T23:11:45.548Z,2.72
2022-11-17T23:14:14.816Z,2.40
2022-11-17T23:16:42.152Z,2.40
2022-11-17T23:19:13.197Z,2.25
2022-11-17T23:21:40.421Z,2.17
2022-11-17T23:24:09.900Z,3.75
2022-11-17T23:26:36.702Z,3.03
2022-11-17T23:29:03.656Z,3.45
2022-11-17T23:31:30.432Z,2.55
2022-11-17T23:33:57.255Z,2.00
2022-11-17T23:36:24.691Z,2.55
2022-11-17T23:38:51.838Z,2.58
2022-11-17T23:41:20.357Z,3.22
2022-11-17T23:43:49.875Z,2.40
2022-11-17T23:46:18.915Z,2.17
2022-11-17T23:48:45.815Z,2.38
2022-11-17T23:51:20.488Z,2.28
2022-11-17T23:56:15.312Z,2.42
2022-11-17T23:58:42.551Z,2.25
